This is the latest recevied weather packets stored in our database for station/object EW6780. If no packets are shown the sender has not sent any weather packets the latest 10 day(s).
| Time | Temp. | Humidity | Pressure | Rain* | Wind** | Luminosity | Snow |
|---|---|---|---|---|---|---|---|
| 1778227214 | 9.44° C | 72% | 1011.5 hPa | 0 mm | - | - | - |
| 1778226608 | 9.44° C | 72% | 1011.3 hPa | 0 mm | - | - | - |
| 1778225405 | 9.44° C | 70% | 1010.8 hPa | 0 mm | - | - | - |
| 1778224805 | 10° C | 69% | 1010.8 hPa | 0 mm | - | - | - |
| 1778224205 | 10° C | 67% | 1010.9 hPa | 0 mm | - | - | - |
| 1778223305 | 10° C | 67% | 1010.7 hPa | 0 mm | - | - | - |
| 1778223008 | 10.56° C | 67% | 1010.7 hPa | 0 mm | - | - | - |
| 1778222409 | 10.56° C | 66% | 1010.7 hPa | 0 mm | - | - | - |
| 1778221214 | 11.11° C | 65% | 1011 hPa | 0 mm | - | - | - |
| 1778218808 | 10.56° C | 71% | 1009.8 hPa | 0 mm | - | - | - |
| 1778218508 | 10.56° C | 70% | 1009.4 hPa | 0 mm | - | - | - |
| 1778218211 | 10.56° C | 69% | 1009.2 hPa | 0 mm | - | - | - |
| 1778217905 | 10.56° C | 68% | 1009.1 hPa | 0 mm | - | - | - |
| 1778217605 | 10.56° C | 67% | 1009.3 hPa | 0 mm | - | - | - |
| 1778217005 | 10.56° C | 68% | 1009.4 hPa | 0 mm | - | - | - |
| 1778215808 | 10.56° C | 72% | 1009.4 hPa | 0 mm | - | - | - |
| 1778215208 | 10.56° C | 71% | 1009.2 hPa | 0 mm | - | - | - |
| 1778214305 | 10° C | 69% | 1009.1 hPa | 0 mm | - | - | - |
| 1778214005 | 10° C | 68% | 1009.1 hPa | 0 mm | - | - | - |
| 1778213108 | 10.56° C | 66% | 1009 hPa | 0 mm | - | - | - |
| 1778211305 | 10.56° C | 63% | 1009.3 hPa | 0 mm | - | - | - |
| 1778211008 | 10.56° C | 63% | 1009.2 hPa | 0 mm | - | - | - |
| 1778209806 | 11.11° C | 61% | 1009.3 hPa | 0 mm | - | - | - |
| 1778209205 | 11.11° C | 60% | 1009.2 hPa | 0 mm | - | - | - |
| 1778208306 | 11.11° C | 59% | 1009.2 hPa | 0 mm | - | - | - |
* Rain latest hour (hover to see other rain measurements)
** Current wind speed in m/s (hover to see current wind gust speed)